Time;durP1;ratioP1;P1;durP2;ratioP2;P2;SDS_P1;SDS_P2;PMS_P1;PMS_P2;Temp;Humidity;BMP_temperature;BMP_pressure;BME280_temperature;BME280_humidity;BME280_pressure;Samples;Min_cycle;Max_cycle;Signal;HPM_P1;HPM_P2
2023/08/25 00:00:15;;;;;;;17.37;13.83;;;;;;;22.71;74.09;96972.06;5066224;28;20323;-74
2023/08/25 00:02:42;;;;;;;16.97;12.67;;;;;;;22.62;74.48;96965.03;5066137;28;20707;-75
2023/08/25 00:05:10;;;;;;;14.13;12.13;;;;;;;22.83;74.56;96972.72;5066063;28;20185;-72
2023/08/25 00:07:37;;;;;;;15.03;12.43;;;;;;;22.87;74.71;96979.38;5066923;28;20192;-72
2023/08/25 00:10:05;;;;;;;16.80;13.07;;;;;;;23.00;73.18;96972.75;5069102;28;20299;-73
2023/08/25 00:12:32;;;;;;;15.23;12.47;;;;;;;22.80;74.22;96986.19;5069311;28;20225;-72
2023/08/25 00:14:59;;;;;;;15.87;12.03;;;;;;;22.87;74.21;96987.28;5068730;28;20196;-75
2023/08/25 00:17:26;;;;;;;17.23;12.13;;;;;;;22.75;74.54;96981.34;5070425;28;20181;-75
2023/08/25 00:19:54;;;;;;;18.87;12.80;;;;;;;23.00;74.38;96980.66;5070190;28;20221;-72
2023/08/25 00:22:21;;;;;;;18.87;12.90;;;;;;;23.02;73.74;96977.91;5068635;28;20664;-74
2023/08/25 00:24:48;;;;;;;15.67;12.90;;;;;;;23.11;73.83;96982.28;5069371;28;20190;-81
2023/08/25 00:27:15;;;;;;;18.37;13.23;;;;;;;23.06;74.58;96988.00;5069463;28;20194;-73
2023/08/25 00:29:42;;;;;;;18.93;13.93;;;;;;;23.01;74.71;96982.34;5070549;28;20222;-72
2023/08/25 00:32:09;;;;;;;16.70;14.20;;;;;;;23.25;73.62;96990.53;5035184;28;20212;-73
2023/08/25 00:34:37;;;;;;;15.73;14.03;;;;;;;23.32;73.64;96990.78;5068778;28;20198;-73
2023/08/25 00:37:04;;;;;;;16.93;14.17;;;;;;;23.03;74.63;96983.03;5069778;28;20230;-74
2023/08/25 00:39:31;;;;;;;16.87;14.50;;;;;;;22.74;75.01;96970.94;5069749;28;20250;-73
2023/08/25 00:41:58;;;;;;;16.83;14.20;;;;;;;22.58;76.79;96990.91;5070291;28;20215;-73
2023/08/25 00:44:25;;;;;;;18.17;13.10;;;;;;;22.67;76.42;96991.00;5067857;28;20189;-73
2023/08/25 00:46:53;;;;;;;16.90;13.37;;;;;;;22.64;76.58;96986.84;5070437;28;20190;-73
2023/08/25 00:49:21;;;;;;;17.83;14.10;;;;;;;22.89;75.67;96982.69;5067890;28;20201;-73
2023/08/25 00:51:50;;;;;;;21.53;15.57;;;;;;;23.02;74.79;96984.00;5069852;28;20283;-73
2023/08/25 00:54:23;;;;;;;18.13;14.83;;;;;;;22.95;75.31;96977.66;5068545;28;20272;-84
2023/08/25 00:56:50;;;;;;;19.20;15.30;;;;;;;22.96;75.21;97000.44;5068091;28;20657;-74
2023/08/25 00:59:18;;;;;;;19.33;15.07;;;;;;;22.75;75.79;96985.81;5068437;28;20215;-74
2023/08/25 01:01:45;;;;;;;19.90;14.20;;;;;;;22.19;77.20;97012.22;5067768;28;20189;-76
2023/08/25 01:04:13;;;;;;;16.67;13.73;;;;;;;22.23;77.54;97006.53;5070117;28;20185;-73
2023/08/25 01:06:40;;;;;;;16.03;13.17;;;;;;;22.12;78.34;97011.97;5067917;28;20183;-74
2023/08/25 01:09:10;;;;;;;16.47;13.83;;;;;;;22.03;77.95;97010.16;5067821;28;20193;-75
2023/08/25 01:11:56;;;;;;;19.47;14.00;;;;;;;21.93;79.19;97011.97;5068137;28;20195;-72
2023/08/25 01:14:46;;;;;;;17.20;13.27;;;;;;;21.44;81.47;97020.00;5067613;28;20632;-73
2023/08/25 01:17:35;;;;;;;19.17;14.23;;;;;;;21.59;81.25;97016.00;5068528;28;20196;-83
2023/08/25 01:20:07;;;;;;;19.40;13.73;;;;;;;21.26;82.38;97003.19;5066791;28;20708;-78
2023/08/25 01:22:54;;;;;;;19.13;14.27;;;;;;;21.32;82.98;97008.75;5069141;28;20755;-74
2023/08/25 01:25:30;;;;;;;17.43;13.83;;;;;;;21.71;81.43;97010.44;5068428;28;20195;-78
2023/08/25 01:28:01;;;;;;;20.57;15.07;;;;;;;21.38;80.91;96965.22;5068514;28;20192;-73
2023/08/25 01:30:32;;;;;;;17.50;14.57;;;;;;;21.25;82.40;97001.53;5068251;28;20184;-79
2023/08/25 01:33:00;;;;;;;23.13;15.03;;;;;;;20.82;84.32;96978.13;5069256;28;20198;-72
2023/08/25 01:35:43;;;;;;;18.67;14.93;;;;;;;21.34;82.58;96998.06;5068819;28;20207;-73
2023/08/25 01:38:27;;;;;;;21.43;15.53;;;;;;;21.25;82.73;97001.53;5067465;28;20326;-73
2023/08/25 01:41:22;;;;;;;21.93;16.47;;;;;;;21.53;80.95;97011.28;5066999;28;20216;-78
2023/08/25 01:43:52;;;;;;;23.63;17.30;;;;;;;21.32;81.30;97006.13;5068744;28;20187;-72
2023/08/25 01:46:21;;;;;;;24.20;17.93;;;;;;;21.33;81.03;97004.34;5067317;28;20718;-78
2023/08/25 01:48:52;;;;;;;23.90;18.30;;;;;;;21.47;80.00;97006.56;5067310;28;20682;-73
2023/08/25 01:51:20;;;;;;;21.53;17.97;;;;;;;21.55;79.56;96997.00;5068824;28;20191;-72
2023/08/25 01:53:55;;;;;;;20.97;16.90;;;;;;;21.87;78.49;96999.34;5050283;28;20210;-75
2023/08/25 01:56:23;;;;;;;22.80;17.33;;;;;;;22.13;76.92;96991.69;5068746;28;20196;-78
2023/08/25 01:58:52;;;;;;;21.00;16.57;;;;;;;22.33;76.27;96996.78;5066911;28;20206;-72
2023/08/25 02:01:19;;;;;;;20.37;15.67;;;;;;;22.26;76.00;96974.56;5067164;28;20198;-71
2023/08/25 02:03:47;;;;;;;20.70;16.00;;;;;;;22.60;74.98;96994.22;5067335;28;20184;-76
2023/08/25 02:06:14;;;;;;;19.63;15.50;;;;;;;22.38;75.18;96956.78;5067074;28;20644;-73
2023/08/25 02:08:44;;;;;;;18.53;14.97;;;;;;;22.56;75.11;96997.25;5068693;28;20190;-75
2023/08/25 02:11:11;;;;;;;18.17;15.43;;;;;;;22.54;75.19;97010.63;5049802;28;20299;-74
2023/08/25 02:13:39;;;;;;;18.93;14.30;;;;;;;22.52;75.82;96994.06;5068549;28;20619;-72
2023/08/25 02:16:07;;;;;;;20.43;15.13;;;;;;;22.41;76.53;97002.16;5068356;28;20319;-71
2023/08/25 02:18:34;;;;;;;20.07;14.33;;;;;;;22.45;76.11;96986.88;5071109;28;20262;-74
2023/08/25 02:21:01;;;;;;;17.07;13.47;;;;;;;22.48;75.78;97003.25;5067067;28;20307;-71
2023/08/25 02:23:28;;;;;;;20.13;13.50;;;;;;;22.44;75.19;97001.88;5067917;28;20195;-72
2023/08/25 02:25:56;;;;;;;17.77;12.87;;;;;;;21.78;77.38;96995.72;5067179;28;20180;-74
2023/08/25 02:28:24;;;;;;;18.93;14.10;;;;;;;21.96;76.74;96997.69;5067635;28;20204;-83
2023/08/25 02:30:51;;;;;;;19.00;13.03;;;;;;;21.90;77.81;97014.91;5068180;28;20181;-82
2023/08/25 02:33:19;;;;;;;16.80;12.47;;;;;;;21.98;76.86;97012.41;5066703;28;20190;-77
2023/08/25 02:35:46;;;;;;;16.63;12.23;;;;;;;21.85;77.46;97017.13;5066642;28;20599;-75
2023/08/25 02:38:13;;;;;;;19.60;13.57;;;;;;;21.66;77.49;97019.72;5068106;28;20246;-83
2023/08/25 02:40:40;;;;;;;17.47;13.40;;;;;;;21.06;80.07;97018.97;5065761;28;20726;-81
2023/08/25 02:43:08;;;;;;;16.27;12.70;;;;;;;20.76;81.29;97021.63;5067146;28;20225;-83
2023/08/25 02:45:35;;;;;;;18.17;13.33;;;;;;;20.44;83.07;97020.09;5048989;28;20215;-79
2023/08/25 02:48:03;;;;;;;18.67;12.90;;;;;;;20.60;82.42;97010.75;5066510;28;20241;-78
2023/08/25 02:50:31;;;;;;;13.97;11.73;;;;;;;20.97;80.73;97011.00;5065989;28;20182;-74
2023/08/25 02:52:58;;;;;;;16.97;11.47;;;;;;;21.13;79.31;97003.47;5065668;28;20574;-77
2023/08/25 02:55:25;;;;;;;16.33;12.17;;;;;;;21.29;78.19;97010.84;5066182;28;20223;-72
2023/08/25 02:57:52;;;;;;;17.10;12.87;;;;;;;20.82;79.59;97015.81;5065712;28;20240;-73
2023/08/25 03:00:23;;;;;;;16.37;13.67;;;;;;;20.71;80.14;97013.28;5067551;28;20341;-74
2023/08/25 03:02:51;;;;;;;17.97;13.43;;;;;;;20.63;80.52;97002.56;5066576;28;20615;-82
2023/08/25 03:05:19;;;;;;;20.70;14.53;;;;;;;20.77;80.77;97012.75;5067619;28;20190;-73
2023/08/25 03:07:47;;;;;;;20.17;14.13;;;;;;;20.72;80.90;97003.59;5065604;28;20201;-74
2023/08/25 03:10:14;;;;;;;19.27;13.83;;;;;;;20.96;80.45;97023.34;5067108;28;20193;-82
2023/08/25 03:12:42;;;;;;;18.67;14.17;;;;;;;21.14;79.10;97010.41;5067452;28;20195;-82
2023/08/25 03:15:09;;;;;;;19.93;15.20;;;;;;;21.22;78.88;97017.63;5064738;28;20185;-75
2023/08/25 03:17:37;;;;;;;19.20;13.53;;;;;;;20.94;79.62;97020.00;5066616;28;20209;-74
2023/08/25 03:20:05;;;;;;;16.43;13.57;;;;;;;20.88;80.32;97014.44;5044977;28;20304;-82
2023/08/25 03:22:32;;;;;;;16.63;13.00;;;;;;;21.08;79.57;97010.09;5046069;28;20627;-75
2023/08/25 03:24:59;;;;;;;17.57;13.93;;;;;;;21.30;78.88;97009.88;5046474;28;20694;-72
2023/08/25 03:27:34;;;;;;;20.87;14.87;;;;;;;21.31;78.44;96998.38;5046733;28;20508;-75
2023/08/25 03:30:02;;;;;;;21.77;14.30;;;;;;;21.70;77.37;97007.97;5059014;28;20198;-76
2023/08/25 03:32:31;;;;;;;21.37;15.50;;;;;;;21.82;76.27;97001.59;5055637;28;20233;-75
2023/08/25 03:34:59;;;;;;;19.13;14.43;;;;;;;21.81;76.31;97016.59;5030251;28;20226;-72
2023/08/25 03:37:27;;;;;;;17.63;14.00;;;;;;;21.59;76.63;96985.22;5044670;28;20257;-74
2023/08/25 03:39:54;;;;;;;19.07;14.30;;;;;;;21.72;76.71;97011.28;5056357;28;20210;-75
2023/08/25 03:42:21;;;;;;;20.77;14.80;;;;;;;21.70;76.68;97008.78;5064924;28;20690;-71
2023/08/25 03:44:48;;;;;;;17.33;14.00;;;;;;;21.54;77.03;97007.66;5056051;28;20556;-71
2023/08/25 03:47:16;;;;;;;17.10;13.87;;;;;;;21.38;77.78;97008.22;5050394;28;20198;-72
2023/08/25 03:49:43;;;;;;;16.90;13.70;;;;;;;21.26;78.15;97003.19;5097300;28;20255;-74
2023/08/25 03:52:10;;;;;;;19.97;14.73;;;;;;;21.05;78.71;97001.50;5067012;28;20244;-76
2023/08/25 03:54:38;;;;;;;19.83;14.97;;;;;;;21.15;78.32;97005.94;5065815;28;20277;-75
2023/08/25 03:57:07;;;;;;;22.60;15.20;;;;;;;21.46;77.31;97010.16;5065670;28;20198;-79
2023/08/25 03:59:34;;;;;;;20.90;14.13;;;;;;;21.52;76.59;97001.69;5047701;28;20298;-76
2023/08/25 04:02:03;;;;;;;19.17;13.50;;;;;;;21.79;76.41;97023.75;5067434;28;20185;-74
2023/08/25 04:04:32;;;;;;;17.00;12.80;;;;;;;21.92;75.78;97018.25;5066723;28;20191;-72
2023/08/25 04:06:59;;;;;;;17.70;12.93;;;;;;;22.01;75.20;97025.28;5066289;28;20575;-73
2023/08/25 04:09:27;;;;;;;21.60;12.93;;;;;;;22.20;75.43;97022.63;5066520;28;20195;-72
2023/08/25 04:11:57;;;;;;;33.37;14.90;;;;;;;22.62;72.70;97023.94;5056907;28;20203;-83
2023/08/25 04:14:28;;;;;;;21.83;12.90;;;;;;;22.59;72.67;97016.31;5064882;28;20537;-87
2023/08/25 04:16:56;;;;;;;20.57;12.93;;;;;;;22.94;71.11;97033.25;5064694;28;20663;-72
2023/08/25 04:19:25;;;;;;;20.00;13.23;;;;;;;22.78;71.50;97023.31;5065939;28;20212;-71
2023/08/25 04:21:53;;;;;;;16.73;13.13;;;;;;;22.95;71.79;97027.00;5064658;28;20236;-72
2023/08/25 04:24:20;;;;;;;16.20;12.83;;;;;;;23.15;69.77;97015.34;5065779;28;20217;-72
2023/08/25 04:26:47;;;;;;;21.37;13.77;;;;;;;23.30;69.71;97024.44;5066630;28;20219;-72
2023/08/25 04:29:14;;;;;;;26.27;16.60;;;;;;;23.52;68.63;97037.25;5064128;28;20663;-72
2023/08/25 04:31:43;;;;;;;19.60;14.07;;;;;;;23.48;68.50;97022.69;5065348;28;20268;-77
2023/08/25 04:34:15;;;;;;;20.73;14.27;;;;;;;23.70;68.13;97042.56;5064338;28;20187;-75
2023/08/25 04:36:45;;;;;;;21.23;13.97;;;;;;;23.82;67.73;97028.94;5064225;28;20688;-76
2023/08/25 04:39:14;;;;;;;23.27;14.10;;;;;;;24.01;66.90;97025.31;5064669;28;20189;-74
2023/08/25 04:41:42;;;;;;;20.53;13.87;;;;;;;23.95;67.00;97039.97;5063799;28;20231;-73
2023/08/25 04:44:09;;;;;;;17.93;13.80;;;;;;;23.94;67.22;97051.56;5065026;28;20197;-80
2023/08/25 04:46:37;;;;;;;14.97;12.47;;;;;;;23.78;67.68;97059.31;5047204;28;20203;-77
2023/08/25 04:49:05;;;;;;;17.07;12.93;;;;;;;23.34;69.51;97065.50;5065075;28;20191;-78
2023/08/25 04:51:36;;;;;;;16.80;14.30;;;;;;;23.16;70.21;97064.59;5064852;28;20196;-75
2023/08/25 04:54:06;;;;;;;16.20;12.80;;;;;;;23.30;70.41;97070.22;5065303;28;20195;-74
2023/08/25 04:56:35;;;;;;;17.73;13.67;;;;;;;23.51;68.74;97059.41;5070381;28;20194;-86
2023/08/25 04:59:03;;;;;;;18.53;14.17;;;;;;;23.79;68.75;97066.28;5068363;28;20190;-84
2023/08/25 05:01:30;;;;;;;18.83;13.83;;;;;;;24.17;67.76;97059.88;5069101;28;20354;-87
2023/08/25 05:03:57;;;;;;;21.13;14.33;;;;;;;24.39;66.56;97066.50;5078322;28;20204;-80
2023/08/25 05:06:25;;;;;;;18.33;14.30;;;;;;;24.69;66.29;97074.81;5051938;28;20621;-76
2023/08/25 05:08:54;;;;;;;19.73;14.53;;;;;;;24.86;64.74;97075.75;5068464;28;20196;-79
2023/08/25 05:11:21;;;;;;;17.37;13.70;;;;;;;24.71;64.24;97061.44;5070247;28;20187;-76
2023/08/25 05:13:48;;;;;;;19.60;14.13;;;;;;;24.68;64.82;97069.66;5068341;28;20193;-79
2023/08/25 05:16:19;;;;;;;18.53;13.67;;;;;;;24.27;66.48;97073.03;5068264;28;20215;-83
2023/08/25 05:18:50;;;;;;;17.67;13.10;;;;;;;24.18;67.12;97080.91;5069618;28;20216;-78
2023/08/25 05:21:17;;;;;;;24.63;15.10;;;;;;;24.38;66.66;97064.84;5077041;28;20661;-78
2023/08/25 05:23:48;;;;;;;15.00;12.37;;;;;;;24.56;64.79;97062.97;5070312;28;20588;-83
2023/08/25 05:26:16;;;;;;;18.20;12.87;;;;;;;24.59;65.82;97076.72;5068147;28;20624;-79
2023/08/25 05:28:55;;;;;;;18.13;13.80;;;;;;;24.24;66.90;97047.69;5067317;28;20189;-78
2023/08/25 05:31:25;;;;;;;19.30;13.13;;;;;;;24.42;67.57;97074.94;5068188;28;20212;-73
2023/08/25 05:34:17;;;;;;;20.40;13.77;;;;;;;24.54;66.43;97080.84;5068857;28;20204;-73
2023/08/25 05:36:51;;;;;;;18.30;14.13;;;;;;;24.55;65.87;97085.13;5069608;28;20762;-86
2023/08/25 05:39:20;;;;;;;20.27;14.30;;;;;;;24.73;64.52;97085.94;5067402;28;20553;-74
2023/08/25 05:41:48;;;;;;;17.33;13.83;;;;;;;24.53;65.27;97077.34;5049864;28;20239;-74
2023/08/25 05:44:16;;;;;;;15.43;12.90;;;;;;;24.23;69.07;97091.03;5067674;28;20696;-73
2023/08/25 05:46:44;;;;;;;16.80;13.17;;;;;;;23.95;69.81;97077.03;5069346;28;20244;-72
2023/08/25 05:49:11;;;;;;;21.77;15.27;;;;;;;24.64;68.44;97097.47;5069434;28;20248;-73
2023/08/25 05:51:39;;;;;;;30.03;18.97;;;;;;;24.10;68.72;97056.19;5068667;28;20722;-73
2023/08/25 05:54:06;;;;;;;16.90;14.93;;;;;;;24.48;68.18;97098.19;5051430;28;20184;-74
2023/08/25 05:56:33;;;;;;;20.43;14.57;;;;;;;24.64;67.63;97102.75;5066654;28;20279;-74
2023/08/25 05:59:00;;;;;;;19.93;15.30;;;;;;;24.32;68.53;97089.28;5067324;28;20204;-72
2023/08/25 06:01:28;;;;;;;18.57;15.67;;;;;;;24.73;67.28;97097.38;5068741;28;20315;-76
2023/08/25 06:03:59;;;;;;;17.70;14.53;;;;;;;24.87;66.13;97088.03;5066960;28;20193;-75
2023/08/25 06:06:27;;;;;;;20.03;15.27;;;;;;;25.13;64.48;97085.34;5068408;28;20242;-73
2023/08/25 06:08:54;;;;;;;22.87;14.87;;;;;;;25.47;63.60;97089.66;5067804;28;20200;-77
2023/08/25 06:11:22;;;;;;;24.07;15.10;;;;;;;25.87;62.61;97088.09;5068087;28;20295;-75
2023/08/25 06:13:49;;;;;;;17.60;13.93;;;;;;;26.15;61.40;97098.28;5067269;28;20191;-72
2023/08/25 06:16:16;;;;;;;20.70;15.07;;;;;;;26.38;60.89;97101.09;5067279;28;20197;-73
2023/08/25 06:18:44;;;;;;;18.03;14.47;;;;;;;26.57;60.07;97093.63;5068527;28;20302;-77
2023/08/25 06:21:11;;;;;;;18.60;14.73;;;;;;;26.65;59.92;97091.97;5066540;28;20311;-77
2023/08/25 06:23:38;;;;;;;17.53;14.57;;;;;;;26.58;60.42;97092.63;5070937;28;20186;-75
2023/08/25 06:26:06;;;;;;;19.47;14.97;;;;;;;26.45;60.69;97080.84;5073982;28;20592;-74
2023/08/25 06:28:33;;;;;;;18.63;14.97;;;;;;;26.66;61.41;97091.81;5070564;28;20825;-79
2023/08/25 06:31:04;;;;;;;20.57;14.90;;;;;;;26.78;60.20;97093.13;5073402;28;20193;-76
2023/08/25 06:33:31;;;;;;;19.83;15.10;;;;;;;26.80;59.72;97083.16;5073412;28;20220;-74
2023/08/25 06:35:58;;;;;;;17.73;13.73;;;;;;;26.88;59.57;97084.97;5073198;28;20370;-82
2023/08/25 06:38:26;;;;;;;20.30;15.03;;;;;;;26.87;59.47;97088.63;5073780;28;20190;-74
2023/08/25 06:40:54;;;;;;;19.93;15.10;;;;;;;27.00;59.59;97089.75;5076623;28;20225;-83
2023/08/25 06:43:22;;;;;;;18.27;15.17;;;;;;;27.02;59.08;97103.72;5071955;28;20259;-79
2023/08/25 06:45:49;;;;;;;21.93;15.47;;;;;;;26.87;60.30;97105.44;5071407;28;20239;-74
2023/08/25 06:48:16;;;;;;;18.33;14.53;;;;;;;26.96;60.63;97103.56;5071209;28;20189;-73
2023/08/25 06:50:43;;;;;;;21.20;14.53;;;;;;;27.05;59.76;97071.47;5073904;28;20424;-78
2023/08/25 06:53:10;;;;;;;19.67;14.40;;;;;;;27.45;58.99;97094.44;5070673;28;20189;-78
2023/08/25 06:55:37;;;;;;;18.10;13.50;;;;;;;27.31;58.35;97055.22;5067925;28;20247;-78
2023/08/25 06:58:06;;;;;;;18.10;13.60;;;;;;;27.44;57.89;97081.31;5067879;28;20189;-77
2023/08/25 07:00:34;;;;;;;15.37;13.37;;;;;;;27.73;56.40;97076.16;5066258;28;20216;-73
2023/08/25 07:03:03;;;;;;;20.50;15.13;;;;;;;27.75;56.30;97069.66;5069079;28;20178;-75
2023/08/25 07:05:30;;;;;;;16.07;12.93;;;;;;;27.81;55.09;97062.81;5068133;28;20190;-75
2023/08/25 07:07:58;;;;;;;22.97;12.77;;;;;;;28.17;54.82;97064.72;5068531;28;20219;-86
2023/08/25 07:10:26;;;;;;;15.33;12.10;;;;;;;28.15;54.25;97082.72;5066970;28;20285;-74
2023/08/25 07:12:53;;;;;;;12.13;10.27;;;;;;;28.13;52.31;97087.41;5065977;28;20272;-75
2023/08/25 07:16:00;;;;;;;13.47;11.13;;;;;;;27.89;53.72;97070.72;5066442;28;20593;-81
2023/08/25 07:18:41;;;;;;;12.50;11.20;;;;;;;27.95;53.22;97078.00;5047565;28;20571;-76
2023/08/25 07:21:09;;;;;;;16.77;11.50;;;;;;;28.04;53.41;97074.34;5065669;28;20314;-81
2023/08/25 07:24:17;;;;;;;15.67;11.30;;;;;;;28.27;52.83;97069.84;5056818;28;20296;-73
2023/08/25 07:26:58;;;;;;;13.23;10.87;;;;;;;28.39;51.77;97070.22;5053635;28;20581;-77
2023/08/25 07:29:25;;;;;;;14.43;10.77;;;;;;;28.56;52.38;97069.94;5047323;28;20201;-75
2023/08/25 07:31:52;;;;;;;14.03;10.83;;;;;;;28.64;51.81;97050.38;5046151;28;20256;-81
2023/08/25 07:34:19;;;;;;;14.47;11.43;;;;;;;28.73;51.44;97055.41;5043800;28;20627;-76
2023/08/25 07:36:47;;;;;;;15.07;10.67;;;;;;;29.08;51.68;97069.06;5082351;28;20664;-79
2023/08/25 07:39:14;;;;;;;11.17;10.00;;;;;;;29.15;50.18;97064.66;5049137;28;20229;-83
2023/08/25 07:42:22;;;;;;;19.63;11.70;;;;;;;29.30;50.33;97078.84;5048435;28;20300;-75
2023/08/25 07:45:44;;;;;;;11.77;9.60;;;;;;;29.26;49.71;97070.38;5083869;28;20201;-76
2023/08/25 07:48:25;;;;;;;13.40;10.03;;;;;;;29.21;49.58;97075.44;5063302;28;20189;-86
2023/08/25 07:50:52;;;;;;;14.97;10.23;;;;;;;29.14;50.21;97052.31;5064341;28;20205;-78
2023/08/25 07:53:23;;;;;;;11.13;9.67;;;;;;;29.36;50.09;97072.75;5052211;28;20198;-74
2023/08/25 07:55:50;;;;;;;11.70;10.20;;;;;;;29.52;48.99;97072.53;5044332;28;20595;-81
2023/08/25 07:58:19;;;;;;;13.53;10.20;;;;;;;29.61;49.22;97074.09;5045256;28;20189;-78
2023/08/25 08:00:47;;;;;;;13.73;12.03;;;;;;;29.67;47.94;97050.16;5045621;28;20252;-76
2023/08/25 08:03:14;;;;;;;16.13;11.47;;;;;;;29.95;48.66;97074.28;5046491;28;20182;-77
2023/08/25 08:05:43;;;;;;;13.10;10.57;;;;;;;29.93;48.24;97064.81;5046301;28;20677;-77
2023/08/25 08:08:10;;;;;;;14.67;10.63;;;;;;;29.84;48.42;97066.78;5047028;28;20202;-74
2023/08/25 08:10:38;;;;;;;14.50;10.67;;;;;;;30.00;47.39;97061.22;5046255;28;20645;-78
2023/08/25 08:13:06;;;;;;;10.40;9.13;;;;;;;30.05;47.16;97069.47;5046895;28;20712;-79
2023/08/25 08:15:33;;;;;;;15.00;10.17;;;;;;;30.16;46.52;97071.63;5047395;28;20197;-75
2023/08/25 08:18:00;;;;;;;17.07;12.53;;;;;;;30.17;46.84;97067.94;5043871;28;20186;-77
2023/08/25 08:20:27;;;;;;;14.53;10.90;;;;;;;30.23;45.98;97051.13;5046219;28;20196;-75
2023/08/25 08:22:54;;;;;;;14.40;10.17;;;;;;;30.30;46.70;97051.22;5045214;28;20194;-75
2023/08/25 08:25:22;;;;;;;16.03;11.67;;;;;;;30.47;46.21;97047.25;5044310;28;20191;-79
2023/08/25 08:27:49;;;;;;;15.70;10.80;;;;;;;30.59;46.23;97050.22;5045129;28;20277;-81
2023/08/25 08:30:16;;;;;;;12.20;9.80;;;;;;;30.72;45.74;97053.00;5062513;28;20259;-79
2023/08/25 08:32:43;;;;;;;13.33;10.30;;;;;;;30.73;45.59;97054.66;5069743;28;20266;-74
2023/08/25 08:35:12;;;;;;;12.90;8.97;;;;;;;30.81;45.26;97041.13;5069012;28;20212;-75
2023/08/25 08:37:40;;;;;;;12.73;9.60;;;;;;;30.83;46.43;97049.78;5070207;28;20706;-74
2023/08/25 08:40:11;;;;;;;12.48;9.57;;;;;;;30.81;45.10;97049.97;5050935;28;20217;-75
2023/08/25 08:42:39;;;;;;;12.35;10.30;;;;;;;30.70;46.16;97017.59;5068121;28;20221;-84
2023/08/25 08:45:09;;;;;;;15.13;10.25;;;;;;;30.95;45.34;97050.94;5068067;28;20187;-73
2023/08/25 08:47:38;;;;;;;15.40;10.60;;;;;;;31.13;45.33;97045.88;5071897;28;20189;-80
2023/08/25 08:50:07;;;;;;;11.63;9.55;;;;;;;30.95;45.36;97022.34;5072071;28;20680;-74
2023/08/25 08:52:35;;;;;;;12.43;9.98;;;;;;;30.84;45.59;97038.06;5070544;28;20243;-73
2023/08/25 08:55:06;;;;;;;14.80;10.13;;;;;;;30.94;45.70;97039.41;5070414;28;20203;-79
2023/08/25 08:57:33;;;;;;;12.57;10.00;;;;;;;31.12;45.63;97037.00;5069925;28;20461;-78
2023/08/25 09:00:07;;;;;;;12.07;10.18;;;;;;;31.35;45.31;97036.72;5070139;28;20625;-76
2023/08/25 09:02:36;;;;;;;13.63;9.95;;;;;;;31.54;45.05;97038.69;5069799;28;20279;-80
2023/08/25 09:05:05;;;;;;;12.55;10.27;;;;;;;31.65;45.27;97037.28;5068826;28;20192;-79
2023/08/25 09:07:33;;;;;;;10.52;9.25;;;;;;;31.60;44.78;97034.38;5068960;28;20197;-73
2023/08/25 09:10:02;;;;;;;10.32;9.27;;;;;;;31.60;45.37;97035.19;5066332;28;20194;-76
2023/08/25 09:12:30;;;;;;;11.00;8.98;;;;;;;31.47;45.60;96991.50;5067890;28;20888;-76
2023/08/25 09:14:57;;;;;;;11.73;8.70;;;;;;;31.77;44.81;97024.94;5067040;28;20189;-82
2023/08/25 09:17:24;;;;;;;14.68;9.75;;;;;;;31.66;45.13;97034.38;5068943;28;20275;-78
2023/08/25 09:19:53;;;;;;;10.82;9.15;;;;;;;31.61;45.16;97030.66;5050976;28;20197;-77
2023/08/25 09:22:23;;;;;;;12.40;9.20;;;;;;;31.37;45.27;97036.53;5050835;28;20351;-76
2023/08/25 09:24:50;;;;;;;13.43;10.20;;;;;;;31.52;45.44;97019.31;5067414;28;20215;-78
2023/08/25 09:27:23;;;;;;;14.35;12.13;;;;;;;31.63;45.25;97017.91;5066328;28;20735;-74
2023/08/25 09:30:06;;;;;;;14.05;10.23;;;;;;;31.65;45.30;97008.66;5068914;28;20190;-78
2023/08/25 09:32:35;;;;;;;13.23;9.77;;;;;;;31.70;45.17;97029.44;5066612;28;20232;-75
2023/08/25 09:35:14;;;;;;;14.10;10.85;;;;;;;31.61;44.89;96993.19;5068115;28;20181;-74
2023/08/25 09:37:42;;;;;;;10.88;9.70;;;;;;;31.69;45.24;97019.78;5068153;28;20229;-76
2023/08/25 09:40:26;;;;;;;11.77;8.73;;;;;;;31.72;45.10;97017.50;5071793;27;1549448;-79
2023/08/25 09:43:04;;;;;;;18.50;10.27;;;;;;;32.08;44.58;97011.84;5104360;28;20188;-79
2023/08/25 09:45:33;;;;;;;13.82;9.35;;;;;;;32.16;44.05;97008.13;5084835;28;20188;-79
2023/08/25 09:48:07;;;;;;;11.90;9.73;;;;;;;32.27;44.60;97010.19;5070286;28;20216;-81
2023/08/25 09:50:37;;;;;;;11.05;8.57;;;;;;;32.01;44.11;97006.47;5102365;28;20275;-74
2023/08/25 09:53:10;;;;;;;13.68;10.48;;;;;;;32.20;44.08;97009.34;5086485;28;20249;-76
2023/08/25 09:55:39;;;;;;;14.80;8.93;;;;;;;32.29;44.01;96994.72;5084605;28;20200;-73
2023/08/25 09:58:08;;;;;;;11.63;9.00;;;;;;;32.51;43.96;96993.50;5085584;28;20192;-74
2023/08/25 10:00:40;;;;;;;10.40;9.18;;;;;;;32.76;43.05;96994.50;5085490;28;20207;-78
2023/08/25 10:03:09;;;;;;;15.65;8.85;;;;;;;32.85;42.57;96993.25;5084764;28;20824;-77
2023/08/25 10:05:41;;;;;;;9.70;8.60;;;;;;;32.02;43.17;96986.69;5105751;28;20184;-75
2023/08/25 10:08:09;;;;;;;12.65;9.95;;;;;;;31.78;44.17;96968.47;5105445;28;20218;-75
2023/08/25 10:10:39;;;;;;;10.45;8.95;;;;;;;31.97;43.58;96967.72;5087508;28;20206;-73
2023/08/25 10:13:11;;;;;;;10.80;8.90;;;;;;;32.04;43.58;96951.63;5087857;28;20199;-76
2023/08/25 10:15:42;;;;;;;9.20;8.23;;;;;;;32.16;43.29;96970.59;5085906;28;20192;-76
2023/08/25 10:18:09;;;;;;;11.32;8.18;;;;;;;32.20;44.31;96950.38;5105099;28;20621;-79
2023/08/25 10:20:38;;;;;;;15.15;8.80;;;;;;;32.38;43.25;96974.69;5102815;28;20680;-75
2023/08/25 10:23:07;;;;;;;15.45;8.90;;;;;;;32.46;43.13;96956.56;5104132;28;20264;-73
2023/08/25 10:25:36;;;;;;;9.85;8.40;;;;;;;32.61;42.33;96964.38;5103238;28;20255;-73
2023/08/25 10:28:06;;;;;;;10.73;8.25;;;;;;;32.29;42.56;96962.56;5103525;28;20551;-82
2023/08/25 10:30:35;;;;;;;10.50;8.32;;;;;;;32.46;42.00;96953.09;5103484;28;20293;-80
2023/08/25 10:33:09;;;;;;;8.50;7.00;;;;;;;32.72;41.43;96966.44;5084301;28;20192;-75
2023/08/25 10:35:44;;;;;;;9.48;7.68;;;;;;;32.94;40.81;96969.66;5103385;28;20583;-74
2023/08/25 10:38:18;;;;;;;10.05;7.65;;;;;;;32.64;42.06;96959.44;5102047;28;20199;-72
2023/08/25 10:40:54;;;;;;;8.48;7.60;;;;;;;32.67;41.93;96966.22;5103255;28;20240;-72
2023/08/25 10:43:34;;;;;;;10.38;8.48;;;;;;;32.59;40.94;96958.41;5102652;28;20191;-73
2023/08/25 10:46:02;;;;;;;9.27;7.88;;;;;;;32.76;41.46;96943.53;5083769;28;20221;-73
2023/08/25 10:48:29;;;;;;;9.20;7.68;;;;;;;32.67;42.07;96942.91;5103805;28;20192;-74
2023/08/25 10:51:18;;;;;;;8.75;7.95;;;;;;;32.94;40.79;96945.50;5073744;28;20646;-73
2023/08/25 10:53:55;;;;;;;8.95;7.43;;;;;;;32.80;40.34;96936.69;5089750;28;20205;-75
2023/08/25 10:56:23;;;;;;;10.70;8.38;;;;;;;33.11;40.67;96942.19;5089787;28;20188;-85
2023/08/25 10:59:11;;;;;;;9.82;7.50;;;;;;;33.35;40.01;96946.81;5088836;28;20316;-73
2023/08/25 11:01:38;;;;;;;10.15;7.93;;;;;;;33.18;40.44;96950.22;5071240;28;20239;-73
2023/08/25 11:04:11;;;;;;;8.02;7.32;;;;;;;33.00;40.52;96952.75;5087837;28;20184;-74
2023/08/25 11:06:45;;;;;;;9.10;7.63;;;;;;;32.74;41.96;96916.09;5089756;28;20203;-83
2023/08/25 11:09:35;;;;;;;8.68;7.55;;;;;;;33.20;40.59;96946.25;5070478;28;20561;-83
2023/08/25 11:12:07;;;;;;;9.10;7.95;;;;;;;32.93;39.99;96935.81;5088269;28;20193;-76
2023/08/25 11:14:38;;;;;;;10.77;7.38;;;;;;;33.03;40.47;96926.31;5089151;28;20193;-78
2023/08/25 11:17:08;;;;;;;10.05;8.20;;;;;;;33.31;40.61;96937.53;5087927;28;20706;-76
2023/08/25 11:19:39;;;;;;;8.35;7.53;;;;;;;33.76;39.87;96937.53;5089631;28;20220;-80
2023/08/25 11:22:11;;;;;;;10.05;7.63;;;;;;;33.79;39.43;96940.59;5088514;28;20203;-79
2023/08/25 11:24:39;;;;;;;11.60;7.80;;;;;;;33.91;39.02;96914.66;5088711;28;20734;-78
2023/08/25 11:27:11;;;;;;;11.18;7.95;;;;;;;33.92;38.53;96939.66;5089351;28;20177;-74
2023/08/25 11:29:45;;;;;;;11.82;8.27;;;;;;;33.95;39.29;96929.28;5069276;28;20193;-75
2023/08/25 11:32:14;;;;;;;10.68;7.85;;;;;;;34.11;38.65;96930.63;5071343;28;20201;-72